createdAt,value
2023-05-04T00:02:22.302Z,101902.28
2023-05-04T00:04:51.775Z,101897.91
2023-05-04T00:07:18.430Z,101901.38
2023-05-04T00:09:44.813Z,101897.09
2023-05-04T00:12:11.541Z,101893.50
2023-05-04T00:14:37.913Z,101900.41
2023-05-04T00:17:06.496Z,101891.75
2023-05-04T00:19:34.572Z,101883.09
2023-05-04T00:22:01.125Z,101884.84
2023-05-04T00:24:27.670Z,101890.94
2023-05-04T00:26:54.559Z,101886.53
2023-05-04T00:29:21.117Z,101891.72
2023-05-04T00:31:47.654Z,101888.28
2023-05-04T00:34:15.594Z,101886.53
2023-05-04T00:36:42.694Z,101889.16
2023-05-04T00:39:09.065Z,101891.75
2023-05-04T00:41:35.466Z,101893.53
2023-05-04T00:44:04.199Z,101892.66
2023-05-04T00:46:31.063Z,101895.16
2023-05-04T00:48:59.417Z,101887.28
2023-05-04T00:51:26.395Z,101886.47
2023-05-04T00:53:53.762Z,101884.63
2023-05-04T00:56:21.442Z,101886.34
2023-05-04T00:58:48.026Z,101881.97
2023-05-04T01:01:14.461Z,101881.94
2023-05-04T01:03:41.035Z,101881.06
2023-05-04T01:06:11.412Z,101879.34
2023-05-04T01:08:39.200Z,101880.13
2023-05-04T01:11:13.491Z,101887.00
2023-05-04T01:13:39.905Z,101875.84
2023-05-04T01:16:06.355Z,101877.53
2023-05-04T01:18:32.750Z,101881.78
2023-05-04T01:20:59.145Z,101887.03
2023-05-04T01:23:26.220Z,101878.28
2023-05-04T01:26:11.719Z,101888.69
2023-05-04T01:28:42.161Z,101881.69
2023-05-04T01:31:09.193Z,101880.81
2023-05-04T01:33:35.708Z,101885.13
2023-05-04T01:36:02.036Z,101875.56
2023-05-04T01:38:28.406Z,101873.00
2023-05-04T01:40:54.913Z,101873.75
2023-05-04T01:43:21.293Z,101873.78
2023-05-04T01:45:48.033Z,101875.50
2023-05-04T01:48:14.465Z,101872.94
2023-05-04T01:50:41.130Z,101868.63
2023-05-04T01:53:07.470Z,101872.09
2023-05-04T01:55:33.924Z,101869.50
2023-05-04T01:58:00.582Z,101868.56
2023-05-04T02:00:27.472Z,101870.22
2023-05-04T02:02:53.908Z,101871.91
2023-05-04T02:05:20.306Z,101872.69
2023-05-04T02:07:46.702Z,101866.59
2023-05-04T02:10:14.392Z,101869.19
2023-05-04T02:12:42.883Z,101866.63
2023-05-04T02:15:09.521Z,101879.59
2023-05-04T02:17:36.150Z,101870.06
2023-05-04T02:20:04.645Z,101870.91
2023-05-04T02:22:31.384Z,101874.38
2023-05-04T02:24:57.746Z,101873.50
2023-05-04T02:27:24.087Z,101876.03
2023-05-04T02:29:50.419Z,101878.56
2023-05-04T02:32:16.877Z,101877.72
2023-05-04T02:34:43.229Z,101873.38
2023-05-04T02:37:09.658Z,101876.84
2023-05-04T02:39:36.354Z,101875.13
2023-05-04T02:42:03.119Z,101874.25
2023-05-04T02:44:29.465Z,101867.28
2023-05-04T02:46:55.869Z,101870.72
2023-05-04T02:49:22.801Z,101867.28
2023-05-04T02:51:49.169Z,101860.31
2023-05-04T02:54:15.547Z,101868.97
2023-05-04T02:56:41.881Z,101863.69
2023-05-04T02:59:08.241Z,101868.78
2023-05-04T03:01:35.088Z,101860.94
2023-05-04T03:04:01.574Z,101857.50
2023-05-04T03:06:28.018Z,101855.75
2023-05-04T03:08:54.396Z,101856.69
2023-05-04T03:11:20.844Z,101849.78
2023-05-04T03:13:47.197Z,101848.91
2023-05-04T03:16:13.611Z,101854.19
2023-05-04T03:18:39.979Z,101853.34
2023-05-04T03:21:06.313Z,101849.03
2023-05-04T03:23:32.672Z,101848.03
2023-05-04T03:25:59.010Z,101839.44
2023-05-04T03:28:25.364Z,101844.59
2023-05-04T03:30:51.833Z,101856.78
2023-05-04T03:33:18.177Z,101849.06
2023-05-04T03:35:44.532Z,101849.88
2023-05-04T03:38:11.452Z,101851.63
2023-05-04T03:40:37.814Z,101853.38
2023-05-04T03:43:04.156Z,101851.59
2023-05-04T03:45:30.533Z,101851.66
2023-05-04T03:47:57.286Z,101853.38
2023-05-04T03:50:23.750Z,101848.19
2023-05-04T03:52:52.413Z,101854.25
2023-05-04T03:55:19.168Z,101859.50
2023-05-04T03:57:45.703Z,101858.75
2023-05-04T04:00:12.344Z,101850.19
2023-05-04T04:02:38.862Z,101854.56
2023-05-04T04:05:06.446Z,101852.91
2023-05-04T04:07:33.215Z,101852.94
2023-05-04T04:09:59.556Z,101853.91
2023-05-04T04:12:25.900Z,101847.91
2023-05-04T04:14:52.535Z,101849.72
2023-05-04T04:17:18.999Z,101855.88
2023-05-04T04:19:45.343Z,101856.81
2023-05-04T04:22:11.719Z,101865.50
2023-05-04T04:24:38.069Z,101865.59
2023-05-04T04:27:04.398Z,101862.19
2023-05-04T04:29:30.830Z,101858.78
2023-05-04T04:31:57.255Z,101861.44
2023-05-04T04:34:23.878Z,101863.28
2023-05-04T04:36:51.243Z,101863.31
2023-05-04T04:39:17.909Z,101860.72
2023-05-04T04:41:44.319Z,101863.41
2023-05-04T04:44:11.657Z,101862.56
2023-05-04T04:46:38.062Z,101861.78
2023-05-04T04:49:06.796Z,101861.78
2023-05-04T04:51:33.266Z,101866.19
2023-05-04T04:53:59.684Z,101869.69
2023-05-04T04:56:26.469Z,101866.22
2023-05-04T04:58:53.422Z,101869.72
2023-05-04T05:01:19.863Z,101866.28
2023-05-04T05:03:46.335Z,101860.22
2023-05-04T05:06:14.178Z,101861.94
2023-05-04T05:08:40.603Z,101859.34
2023-05-04T05:11:07.095Z,101858.50
2023-05-04T05:13:33.559Z,101861.06
2023-05-04T05:15:59.936Z,101849.78
2023-05-04T05:18:26.917Z,101856.69
2023-05-04T05:20:53.318Z,101857.50
2023-05-04T05:23:19.705Z,101855.66
2023-05-04T05:25:46.114Z,101853.88
2023-05-04T05:28:13.484Z,101858.13
2023-05-04T05:30:39.899Z,101860.66
2023-05-04T05:33:06.362Z,101853.56
2023-05-04T05:35:32.821Z,101849.94
2023-05-04T05:37:59.399Z,101852.50
2023-05-04T05:40:25.856Z,101844.56
2023-05-04T05:42:52.405Z,101846.22
2023-05-04T05:45:19.253Z,101845.25
2023-05-04T05:47:45.632Z,101846.94
2023-05-04T05:50:13.356Z,101845.91
2023-05-04T05:52:39.729Z,101849.22
2023-05-04T05:55:06.139Z,101842.06
2023-05-04T05:57:32.538Z,101849.81
2023-05-04T05:59:58.989Z,101846.16
2023-05-04T06:02:26.302Z,101850.13
2023-05-04T06:04:52.843Z,101848.25
2023-05-04T06:07:19.670Z,101848.69
2023-05-04T06:09:46.034Z,101849.34
2023-05-04T06:12:14.992Z,101850.75
2023-05-04T06:14:41.419Z,101848.81
2023-05-04T06:17:07.775Z,101848.22
2023-05-04T06:19:35.355Z,101843.28
2023-05-04T06:22:01.826Z,101842.13
2023-05-04T06:24:29.869Z,101848.13
2023-05-04T06:26:56.401Z,101836.09
2023-05-04T06:29:22.811Z,101843.78
2023-05-04T06:31:49.305Z,101845.19
2023-05-04T06:34:17.024Z,101845.41
2023-05-04T06:36:43.570Z,101839.09
2023-05-04T06:39:10.386Z,101838.03
2023-05-04T06:41:37.211Z,101837.31
2023-05-04T06:44:04.461Z,101840.44
2023-05-04T06:46:31.523Z,101840.09
2023-05-04T06:48:58.300Z,101833.69
2023-05-04T06:51:24.745Z,101839.84
2023-05-04T06:53:51.085Z,101835.47
2023-05-04T06:56:17.453Z,101846.66
2023-05-04T06:58:43.821Z,101843.44
2023-05-04T07:01:11.239Z,101850.31
2023-05-04T07:03:39.127Z,101838.09
2023-05-04T07:06:05.987Z,101839.47
2023-05-04T07:08:33.142Z,101830.56
2023-05-04T07:10:59.590Z,101826.75
2023-05-04T07:13:25.975Z,101831.00
2023-05-04T07:15:52.426Z,101827.47
2023-05-04T07:18:18.848Z,101831.47
2023-05-04T07:20:47.474Z,101824.59
2023-05-04T07:23:13.829Z,101829.66
2023-05-04T07:25:40.180Z,101820.84
2023-05-04T07:28:06.539Z,101822.91
2023-05-04T07:30:32.895Z,101819.69
2023-05-04T07:32:59.348Z,101818.81
2023-05-04T07:35:25.726Z,101815.94
2023-05-04T07:37:52.104Z,101809.78
2023-05-04T07:40:18.606Z,101816.38
2023-05-04T07:42:46.388Z,101804.16
2023-05-04T07:45:13.077Z,101805.53
2023-05-04T07:47:39.461Z,101806.78
2023-05-04T07:50:06.301Z,101804.06
2023-05-04T07:52:33.065Z,101808.13
2023-05-04T07:55:00.779Z,101800.84
2023-05-04T07:57:27.420Z,101809.22
2023-05-04T07:59:55.947Z,101805.47
2023-05-04T08:02:22.762Z,101803.69
2023-05-04T08:04:49.352Z,101805.97
2023-05-04T08:07:17.520Z,101801.59
2023-05-04T08:09:43.944Z,101796.81
2023-05-04T08:12:12.285Z,101808.69
2023-05-04T08:14:39.285Z,101804.97
2023-05-04T08:17:05.712Z,101794.38
2023-05-04T08:19:32.077Z,101797.09
2023-05-04T08:21:58.436Z,101800.88
2023-05-04T08:24:28.104Z,101798.31
2023-05-04T08:27:07.251Z,101802.72
2023-05-04T08:29:37.111Z,101799.66
2023-05-04T08:32:03.904Z,101790.59
2023-05-04T08:34:32.853Z,101783.06
2023-05-04T08:36:59.494Z,101790.19
2023-05-04T08:39:25.886Z,101788.00
2023-05-04T08:41:52.451Z,101795.50
2023-05-04T08:44:21.568Z,101792.91
2023-05-04T08:46:56.664Z,101795.84
2023-05-04T08:49:23.779Z,101797.44
2023-05-04T08:51:52.802Z,101784.31
2023-05-04T08:54:19.185Z,101793.63
2023-05-04T08:56:46.988Z,101791.97
2023-05-04T08:59:20.277Z,101794.22
2023-05-04T09:01:51.245Z,101788.78
2023-05-04T09:04:20.322Z,101785.97
2023-05-04T09:06:47.827Z,101782.25
2023-05-04T09:09:16.434Z,101783.47
2023-05-04T09:11:43.679Z,101782.69
2023-05-04T09:14:10.143Z,101780.19
2023-05-04T09:16:36.777Z,101781.63
2023-05-04T09:19:04.894Z,101782.25
2023-05-04T09:21:31.605Z,101777.25
2023-05-04T09:23:58.237Z,101778.16
2023-05-04T09:26:30.942Z,101784.41
2023-05-04T09:28:57.727Z,101771.16
2023-05-04T09:31:24.442Z,101769.50
2023-05-04T09:33:53.246Z,101767.03
2023-05-04T09:36:21.976Z,101769.50
2023-05-04T09:38:48.844Z,101780.06
2023-05-04T09:41:15.362Z,101777.53
2023-05-04T09:43:42.961Z,101768.50
2023-05-04T09:46:18.935Z,101775.91
2023-05-04T09:48:52.347Z,101767.94
2023-05-04T09:51:21.233Z,101775.66
2023-05-04T09:53:48.506Z,101770.47
2023-05-04T09:56:22.117Z,101764.94
2023-05-04T09:58:49.157Z,101759.50
2023-05-04T10:01:16.136Z,101757.25
2023-05-04T10:03:43.424Z,101751.91
2023-05-04T10:06:10.784Z,101758.63
2023-05-04T10:08:38.002Z,101755.50
2023-05-04T10:11:04.388Z,101754.22
2023-05-04T10:13:30.985Z,101751.78
2023-05-04T10:16:09.450Z,101749.47
2023-05-04T10:18:35.976Z,101737.94
2023-05-04T10:21:20.699Z,101737.78
2023-05-04T10:23:47.324Z,101738.00
2023-05-04T10:26:13.674Z,101740.22
2023-05-04T10:28:39.990Z,101731.63
2023-05-04T10:31:07.539Z,101735.94
2023-05-04T10:33:42.672Z,101732.78
2023-05-04T10:36:09.823Z,101728.19
2023-05-04T10:38:36.599Z,101732.34
2023-05-04T10:41:18.701Z,101725.28
2023-05-04T10:43:54.231Z,101731.63
2023-05-04T10:46:21.545Z,101730.47
2023-05-04T10:48:48.498Z,101732.56
2023-05-04T10:51:32.629Z,101734.47
2023-05-04T10:54:05.335Z,101732.03
2023-05-04T10:56:31.683Z,101731.41
2023-05-04T10:59:07.686Z,101725.09
2023-05-04T11:01:41.198Z,101719.69
2023-05-04T11:04:07.771Z,101719.00
2023-05-04T11:06:48.356Z,101715.03
2023-05-04T11:09:15.409Z,101721.91
2023-05-04T11:11:42.800Z,101719.34
2023-05-04T11:14:10.740Z,101718.16
2023-05-04T11:16:37.142Z,101724.06
2023-05-04T11:19:06.875Z,101717.06
2023-05-04T11:21:33.261Z,101714.06
2023-05-04T11:24:00.234Z,101718.72
2023-05-04T11:26:26.654Z,101715.16
2023-05-04T11:28:53.073Z,101721.50
2023-05-04T11:31:22.583Z,101715.09
2023-05-04T11:33:49.555Z,101726.56
2023-05-04T11:36:16.620Z,101721.31
2023-05-04T11:38:43.538Z,101721.47
2023-05-04T11:41:10.023Z,101727.91
2023-05-04T11:43:37.339Z,101727.59
2023-05-04T11:46:04.679Z,101726.81
2023-05-04T11:48:33.138Z,101720.94
2023-05-04T11:50:59.638Z,101726.13
2023-05-04T11:53:26.332Z,101726.66
2023-05-04T11:55:54.410Z,101725.06
2023-05-04T11:58:24.051Z,101732.50
2023-05-04T12:00:51.258Z,101741.03
2023-05-04T12:03:24.547Z,101732.84
2023-05-04T12:05:55.249Z,101729.59
2023-05-04T12:08:31.946Z,101735.31
2023-05-04T12:11:10.649Z,101726.91
2023-05-04T12:13:37.204Z,101728.22
2023-05-04T12:16:10.676Z,101726.00
2023-05-04T12:18:37.290Z,101725.69
2023-05-04T12:21:10.671Z,101718.25
2023-05-04T12:23:37.251Z,101719.84
2023-05-04T12:26:04.020Z,101713.25
2023-05-04T12:28:30.371Z,101711.13
2023-05-04T12:30:56.828Z,101710.19
2023-05-04T12:33:23.621Z,101708.44
2023-05-04T12:35:49.953Z,101718.22
2023-05-04T12:38:16.292Z,101712.56
2023-05-04T12:40:43.135Z,101715.66
2023-05-04T12:43:10.310Z,101717.34
2023-05-04T12:45:36.796Z,101711.59
2023-05-04T12:48:03.292Z,101723.44
2023-05-04T12:50:29.743Z,101722.31
2023-05-04T12:52:56.100Z,101716.19
2023-05-04T12:55:25.212Z,101717.88
2023-05-04T12:57:51.953Z,101723.53
2023-05-04T13:00:18.441Z,101712.97
2023-05-04T13:02:44.986Z,101717.59
2023-05-04T13:05:13.249Z,101717.81
2023-05-04T13:07:39.604Z,101719.78
2023-05-04T13:10:06.254Z,101716.75
2023-05-04T13:12:33.023Z,101709.75
2023-05-04T13:15:00.319Z,101716.03
2023-05-04T13:17:27.597Z,101710.22
2023-05-04T13:19:54.380Z,101711.19
2023-05-04T13:22:21.338Z,101709.06
2023-05-04T13:24:47.801Z,101703.72
2023-05-04T13:27:15.021Z,101703.84
2023-05-04T13:29:44.154Z,101701.44
2023-05-04T13:32:10.681Z,101696.16
2023-05-04T13:34:37.039Z,101691.22
2023-05-04T13:37:03.629Z,101687.81
2023-05-04T13:39:30.111Z,101691.06
2023-05-04T13:41:56.493Z,101683.72
2023-05-04T13:44:22.932Z,101684.59
2023-05-04T13:46:49.407Z,101684.03
2023-05-04T13:49:15.974Z,101679.91
2023-05-04T13:51:43.231Z,101679.69
2023-05-04T13:54:09.670Z,101679.97
2023-05-04T13:56:36.022Z,101680.88
2023-05-04T13:59:02.395Z,101673.69
2023-05-04T14:01:28.853Z,101675.84
2023-05-04T14:03:55.263Z,101679.03
2023-05-04T14:06:21.906Z,101678.19
2023-05-04T14:08:48.365Z,101677.69
2023-05-04T14:11:14.713Z,101685.03
2023-05-04T14:13:41.087Z,101676.19
2023-05-04T14:16:07.507Z,101681.84
2023-05-04T14:18:33.995Z,101681.41
2023-05-04T14:21:00.549Z,101686.72
2023-05-04T14:23:27.363Z,101680.66
2023-05-04T14:25:55.681Z,101681.22
2023-05-04T14:28:24.694Z,101674.84
2023-05-04T14:30:51.151Z,101669.97
2023-05-04T14:33:21.104Z,101665.34
2023-05-04T14:35:48.365Z,101671.66
2023-05-04T14:38:14.987Z,101671.34
2023-05-04T14:40:41.325Z,101673.91
2023-05-04T14:43:07.962Z,101663.94
2023-05-04T14:45:35.001Z,101675.56
2023-05-04T14:48:02.325Z,101672.78
2023-05-04T14:50:28.884Z,101681.41
2023-05-04T14:52:55.380Z,101677.00
2023-05-04T14:55:21.763Z,101676.06
2023-05-04T14:57:48.137Z,101678.84
2023-05-04T15:00:17.035Z,101674.06
2023-05-04T15:02:43.755Z,101667.78
2023-05-04T15:05:12.471Z,101665.63
2023-05-04T15:07:39.489Z,101673.81
2023-05-04T15:10:08.086Z,101675.91
2023-05-04T15:12:35.125Z,101668.69
2023-05-04T15:15:01.814Z,101675.91
2023-05-04T15:17:28.226Z,101667.81
2023-05-04T15:19:54.595Z,101676.22
2023-05-04T15:22:21.694Z,101676.44
2023-05-04T15:24:48.074Z,101668.06
2023-05-04T15:27:14.782Z,101662.88
2023-05-04T15:29:41.192Z,101673.63
2023-05-04T15:32:07.596Z,101665.91
2023-05-04T15:34:34.305Z,101673.53
2023-05-04T15:37:00.687Z,101660.06
2023-05-04T15:39:27.087Z,101662.53
2023-05-04T15:41:53.488Z,101664.25
2023-05-04T15:44:21.021Z,101663.94
2023-05-04T15:46:47.536Z,101661.91
2023-05-04T15:49:14.378Z,101651.38
2023-05-04T15:51:42.643Z,101659.25
2023-05-04T15:54:09.054Z,101663.28
2023-05-04T15:56:36.097Z,101656.34
2023-05-04T15:59:05.449Z,101652.09
2023-05-04T16:01:32.164Z,101659.25
2023-05-04T16:04:02.111Z,101655.69
2023-05-04T16:06:28.880Z,101661.66
2023-05-04T16:08:55.499Z,101649.94
2023-05-04T16:11:21.846Z,101646.38
2023-05-04T16:13:48.256Z,101655.38
2023-05-04T16:16:17.572Z,101656.38
2023-05-04T16:18:44.275Z,101662.88
2023-05-04T16:21:14.021Z,101659.03
2023-05-04T16:23:40.926Z,101663.38
2023-05-04T16:26:09.954Z,101656.19
2023-05-04T16:28:36.848Z,101661.09
2023-05-04T16:31:05.850Z,101661.75
2023-05-04T16:33:32.432Z,101665.84
2023-05-04T16:35:59.843Z,101659.88
2023-05-04T16:38:26.274Z,101656.34
2023-05-04T16:40:52.608Z,101655.22
2023-05-04T16:43:19.328Z,101654.47
2023-05-04T16:45:46.003Z,101658.13
2023-05-04T16:48:12.452Z,101653.03
2023-05-04T16:50:39.072Z,101659.44
2023-05-04T16:53:08.187Z,101660.28
2023-05-04T16:55:35.917Z,101661.03
2023-05-04T16:58:02.544Z,101669.22
2023-05-04T17:00:29.104Z,101664.16
2023-05-04T17:02:56.975Z,101664.88
2023-05-04T17:05:23.824Z,101660.28
2023-05-04T17:07:50.652Z,101662.03
2023-05-04T17:10:18.653Z,101663.06
2023-05-04T17:12:45.208Z,101656.38
2023-05-04T17:15:12.394Z,101654.78
2023-05-04T17:17:38.836Z,101657.41
2023-05-04T17:20:06.194Z,101659.53
2023-05-04T17:22:32.779Z,101666.63
2023-05-04T17:24:59.224Z,101664.94
2023-05-04T17:27:25.643Z,101662.66
2023-05-04T17:29:52.088Z,101663.47
2023-05-04T17:32:18.616Z,101658.28
2023-05-04T17:34:45.040Z,101661.06
2023-05-04T17:37:11.367Z,101666.25
2023-05-04T17:39:37.697Z,101670.81
2023-05-04T17:42:04.130Z,101673.44
2023-05-04T17:44:32.692Z,101670.91
2023-05-04T17:46:59.264Z,101684.19
2023-05-04T17:49:25.767Z,101676.25
2023-05-04T17:51:53.131Z,101674.78
2023-05-04T17:54:19.470Z,101686.19
2023-05-04T17:56:45.894Z,101684.50
2023-05-04T17:59:12.307Z,101680.31
2023-05-04T18:01:38.655Z,101684.06
2023-05-04T18:04:05.170Z,101689.19
2023-05-04T18:06:32.498Z,101696.22
2023-05-04T18:08:59.224Z,101702.31
2023-05-04T18:11:26.165Z,101704.25
2023-05-04T18:13:52.595Z,101705.94
2023-05-04T18:16:19.095Z,101717.50
2023-05-04T18:18:45.851Z,101722.75
2023-05-04T18:21:12.367Z,101722.94
2023-05-04T18:23:38.666Z,101712.34
2023-05-04T18:26:05.263Z,101707.97
2023-05-04T18:28:32.136Z,101710.66
2023-05-04T18:30:58.673Z,101710.75
2023-05-04T18:33:25.094Z,101714.34
2023-05-04T18:35:51.852Z,101725.53
2023-05-04T18:38:18.780Z,101721.13
2023-05-04T18:40:45.544Z,101738.72
2023-05-04T18:43:11.951Z,101743.88
2023-05-04T18:45:38.342Z,101750.88
2023-05-04T18:48:04.940Z,101744.84
2023-05-04T18:50:31.336Z,101751.66
2023-05-04T18:52:57.844Z,101754.81
2023-05-04T18:55:24.271Z,101766.84
2023-05-04T18:57:51.408Z,101772.41
2023-05-04T19:00:21.379Z,101773.53
2023-05-04T19:02:47.883Z,101767.91
2023-05-04T19:05:15.002Z,101767.66
2023-05-04T19:07:41.465Z,101763.28
2023-05-04T19:10:08.580Z,101757.34
2023-05-04T19:12:35.425Z,101749.53
2023-05-04T19:17:37.122Z,101759.09
2023-05-04T19:20:03.865Z,101755.50
2023-05-04T19:22:30.240Z,101761.72
2023-05-04T19:24:56.665Z,101772.25
2023-05-04T19:27:23.001Z,101781.94
2023-05-04T19:29:49.356Z,101785.47
2023-05-04T19:32:23.463Z,101789.78
2023-05-04T19:34:51.089Z,101787.19
2023-05-04T19:37:17.649Z,101780.19
2023-05-04T19:39:43.980Z,101783.84
2023-05-04T19:42:10.417Z,101790.09
2023-05-04T19:44:37.145Z,101789.56
2023-05-04T19:47:03.676Z,101797.38
2023-05-04T19:49:30.103Z,101809.47
2023-05-04T19:51:56.454Z,101809.38
2023-05-04T19:54:22.840Z,101813.81
2023-05-04T19:56:49.250Z,101812.75
2023-05-04T19:59:15.795Z,101810.75
2023-05-04T20:01:42.157Z,101806.69
2023-05-04T20:04:08.573Z,101800.66
2023-05-04T20:06:35.645Z,101787.03
2023-05-04T20:09:02.380Z,101791.47
2023-05-04T20:11:28.729Z,101796.72
2023-05-04T20:13:55.831Z,101801.22
2023-05-04T20:16:22.297Z,101801.31
2023-05-04T20:18:49.075Z,101802.28
2023-05-04T20:21:15.488Z,101802.31
2023-05-04T20:23:41.912Z,101798.09
2023-05-04T20:26:08.221Z,101796.38
2023-05-04T20:28:34.562Z,101803.28
2023-05-04T20:31:02.790Z,101800.66
2023-05-04T20:33:29.144Z,101804.06
2023-05-04T20:35:55.547Z,101805.94
2023-05-04T20:38:22.004Z,101809.56
2023-05-04T20:40:49.001Z,101811.28
2023-05-04T20:43:16.371Z,101808.63
2023-05-04T20:45:42.706Z,101816.44
2023-05-04T20:48:09.178Z,101821.59
2023-05-04T20:50:35.969Z,101827.03
2023-05-04T20:53:02.807Z,101825.28
2023-05-04T20:55:29.284Z,101824.47
2023-05-04T20:57:55.714Z,101826.22
2023-05-04T21:00:22.060Z,101820.28
2023-05-04T21:02:48.739Z,101823.66
2023-05-04T21:05:15.312Z,101827.31
2023-05-04T21:07:41.654Z,101823.75
2023-05-04T21:10:08.626Z,101824.63
2023-05-04T21:12:35.354Z,101820.28
2023-05-04T21:15:01.724Z,101820.28
2023-05-04T21:17:28.152Z,101812.53
2023-05-04T21:19:54.546Z,101817.66
2023-05-04T21:22:21.242Z,101808.94
2023-05-04T21:24:48.739Z,101811.56
2023-05-04T21:27:15.143Z,101804.56
2023-05-04T21:29:41.517Z,101802.81
2023-05-04T21:32:08.038Z,101805.50
2023-05-04T21:34:34.410Z,101804.69
2023-05-04T21:37:00.786Z,101803.84
2023-05-04T21:39:27.141Z,101802.09
2023-05-04T21:41:53.548Z,101800.38
2023-05-04T21:44:19.914Z,101802.94
2023-05-04T21:46:46.294Z,101799.41
2023-05-04T21:49:12.680Z,101798.63
2023-05-04T21:51:39.005Z,101795.06
2023-05-04T21:54:05.446Z,101793.38
2023-05-04T21:56:31.835Z,101788.97
2023-05-04T21:58:58.188Z,101791.59
2023-05-04T22:01:24.865Z,101795.22
2023-05-04T22:03:52.853Z,101786.50
2023-05-04T22:06:21.514Z,101793.44
2023-05-04T22:08:47.995Z,101790.03
2023-05-04T22:11:14.346Z,101791.75
2023-05-04T22:13:40.759Z,101792.50
2023-05-04T22:16:08.366Z,101794.38
2023-05-04T22:18:34.738Z,101796.91
2023-05-04T22:21:01.184Z,101796.94
2023-05-04T22:23:27.514Z,101802.19
2023-05-04T22:25:53.923Z,101804.78
2023-05-04T22:28:20.788Z,101802.16
2023-05-04T22:30:47.205Z,101795.28
2023-05-04T22:33:13.660Z,101793.53
2023-05-04T22:35:40.009Z,101803.09
2023-05-04T22:38:06.715Z,101800.50
2023-05-04T22:40:33.204Z,101796.97
2023-05-04T22:42:59.513Z,101796.97
2023-05-04T22:45:25.993Z,101800.47
2023-05-04T22:47:52.437Z,101793.50
2023-05-04T22:50:19.592Z,101791.75
2023-05-04T22:52:45.988Z,101795.22
2023-05-04T22:55:12.444Z,101790.91
2023-05-04T22:57:38.858Z,101797.94
2023-05-04T23:00:07.465Z,101793.53
2023-05-04T23:02:34.524Z,101790.88
2023-05-04T23:05:01.261Z,101785.69
2023-05-04T23:07:27.611Z,101789.16
2023-05-04T23:09:54.294Z,101786.50
2023-05-04T23:12:20.627Z,101783.91
2023-05-04T23:14:49.575Z,101786.56
2023-05-04T23:17:15.972Z,101786.56
2023-05-04T23:19:42.373Z,101782.25
2023-05-04T23:22:08.674Z,101782.19
2023-05-04T23:24:35.118Z,101783.94
2023-05-04T23:27:02.061Z,101782.25
2023-05-04T23:29:28.504Z,101775.28
2023-05-04T23:31:55.026Z,101774.44
2023-05-04T23:34:21.404Z,101776.19
2023-05-04T23:36:47.804Z,101774.41
2023-05-04T23:39:14.337Z,101765.69
2023-05-04T23:41:43.281Z,101768.34
2023-05-04T23:44:09.727Z,101770.91
2023-05-04T23:46:36.094Z,101769.22
2023-05-04T23:49:02.422Z,101766.63
2023-05-04T23:51:28.800Z,101768.34
2023-05-04T23:53:55.802Z,101770.09
2023-05-04T23:56:22.201Z,101763.09
2023-05-04T23:58:48.556Z,101773.56
